Time;durP1;ratioP1;P1;durP2;ratioP2;P2;SDS_P1;SDS_P2;PMS_P1;PMS_P2;Temp;Humidity;BMP_temperature;BMP_pressure;BME280_temperature;BME280_humidity;BME280_pressure;Samples;Min_cycle;Max_cycle;Signal;HPM_P1;HPM_P2
2021/10/31 00:00:59;;;;;;;11.10;9.00;;;;;;;;;;6211000;23;20373;-78
2021/10/31 00:03:24;;;;;;;8.63;7.13;;;;;;;;;;6211252;23;20231;-79
2021/10/31 00:05:49;;;;;;;9.27;7.80;;;;;;;;;;6211151;23;20478;-78
2021/10/31 00:08:15;;;;;;;14.47;9.20;;;;;;;;;;6210969;23;20183;-78
2021/10/31 00:10:40;;;;;;;10.70;8.23;;;;;;;;;;6210799;23;20461;-78
2021/10/31 00:13:05;;;;;;;11.20;8.77;;;;;;;;;;6210884;23;20836;-78
2021/10/31 00:15:31;;;;;;;13.60;9.27;;;;;;;;;;6210163;23;20210;-78
2021/10/31 00:17:56;;;;;;;10.93;8.40;;;;;;;;;;6211988;23;20151;-79
2021/10/31 00:20:22;;;;;;;14.53;7.63;;;;;;;;;;6211199;23;20183;-78
2021/10/31 00:22:47;;;;;;;12.80;7.60;;;;;;;;;;6210037;23;20159;-78
2021/10/31 00:25:14;;;;;;;10.73;7.90;;;;;;;;;;6210914;23;20174;-78
2021/10/31 00:27:40;;;;;;;11.43;8.50;;;;;;;;;;6211485;23;20178;-77
2021/10/31 00:30:05;;;;;;;15.63;8.37;;;;;;;;;;6211902;23;20359;-78
2021/10/31 00:32:31;;;;;;;14.57;8.40;;;;;;;;;;6212362;23;20194;-79
2021/10/31 00:34:56;;;;;;;7.07;6.37;;;;;;;;;;6210557;23;20242;-78
2021/10/31 00:37:21;;;;;;;10.10;7.50;;;;;;;;;;6211325;23;20240;-78
2021/10/31 00:39:46;;;;;;;12.90;7.20;;;;;;;;;;6211307;23;20485;-77
2021/10/31 00:42:12;;;;;;;9.33;7.87;;;;;;;;;;6211078;23;20210;-78
2021/10/31 00:44:37;;;;;;;13.03;8.30;;;;;;;;;;6211855;23;20547;-77
2021/10/31 00:47:02;;;;;;;15.80;7.70;;;;;;;;;;6211497;23;20182;-78
2021/10/31 00:49:28;;;;;;;14.43;8.40;;;;;;;;;;6209683;23;20171;-77
2021/10/31 00:51:53;;;;;;;14.53;8.37;;;;;;;;;;6211176;23;20171;-78
2021/10/31 00:54:18;;;;;;;9.50;8.23;;;;;;;;;;6212267;23;20147;-79
2021/10/31 00:56:43;;;;;;;9.63;7.80;;;;;;;;;;6212574;23;20164;-78
2021/10/31 00:59:09;;;;;;;12.53;8.03;;;;;;;;;;6213106;23;20148;-79
2021/10/31 01:01:34;;;;;;;9.47;7.57;;;;;;;;;;6212470;23;20514;-78
2021/10/31 01:04:00;;;;;;;13.40;8.40;;;;;;;;;;6209967;23;20594;-78
2021/10/31 01:06:33;;;;;;;13.93;9.23;;;;;;;;;;6212838;23;20170;-78
2021/10/31 01:09:02;;;;;;;11.80;9.37;;;;;;;;;;6213060;23;20190;-79
2021/10/31 01:11:35;;;;;;;12.00;8.80;;;;;;;;;;6213252;23;20367;-78
2021/10/31 01:14:21;;;;;;;11.90;9.63;;;;;;;;;;6212287;23;20423;-78
2021/10/31 01:16:46;;;;;;;17.33;11.20;;;;;;;;;;6211411;23;20726;-78
2021/10/31 01:19:11;;;;;;;17.67;10.90;;;;;;;;;;6211753;23;20397;-78
2021/10/31 01:21:39;;;;;;;16.70;11.17;;;;;;;;;;6210536;23;20140;-78
2021/10/31 01:24:10;;;;;;;14.20;11.57;;;;;;;;;;6211475;23;20458;-78
2021/10/31 01:26:51;;;;;;;17.07;12.33;;;;;;;;;;6212527;23;20393;-77
2021/10/31 01:29:37;;;;;;;15.07;12.40;;;;;;;;;;6211067;23;20458;-78
2021/10/31 01:32:23;;;;;;;20.80;12.97;;;;;;;;;;6210098;23;20344;-78
2021/10/31 01:35:07;;;;;;;15.27;12.57;;;;;;;;;;6194514;23;20725;-78
2021/10/31 01:37:51;;;;;;;16.87;12.30;;;;;;;;;;6212041;23;20382;-78
2021/10/31 01:40:35;;;;;;;13.90;12.20;;;;;;;;;;6211280;23;20371;-78
2021/10/31 01:43:05;;;;;;;20.60;13.10;;;;;;;;;;6212214;23;20787;-78
2021/10/31 01:45:37;;;;;;;15.60;11.90;;;;;;;;;;6212461;23;20414;-78
2021/10/31 01:48:06;;;;;;;17.73;13.07;;;;;;;;;;6212219;23;20414;-78
2021/10/31 01:50:37;;;;;;;14.43;12.77;;;;;;;;;;6211918;23;21016;-78
2021/10/31 01:53:05;;;;;;;21.10;14.23;;;;;;;;;;6209470;23;20367;-78
2021/10/31 01:55:36;;;;;;;18.70;14.70;;;;;;;;;;6211136;23;20394;-78
2021/10/31 01:58:02;;;;;;;16.30;12.20;;;;;;;;;;6212186;23;20362;-79
2021/10/31 02:00:28;;;;;;;16.20;14.03;;;;;;;;;;6211022;23;20367;-79
2021/10/31 02:02:55;;;;;;;19.33;15.00;;;;;;;;;;6212272;23;20278;-78
2021/10/31 02:05:22;;;;;;;15.03;13.57;;;;;;;;;;6211071;23;20409;-79
2021/10/31 02:07:52;;;;;;;17.73;14.83;;;;;;;;;;6212907;23;20477;-79
2021/10/31 02:10:18;;;;;;;22.47;15.20;;;;;;;;;;6214501;23;20378;-78
2021/10/31 02:12:45;;;;;;;16.80;14.70;;;;;;;;;;6213931;23;20355;-78
2021/10/31 02:15:17;;;;;;;22.90;16.40;;;;;;;;;;6212863;23;20171;-79
2021/10/31 02:17:45;;;;;;;19.43;16.67;;;;;;;;;;6215392;23;20486;-79
2021/10/31 02:20:11;;;;;;;18.27;14.60;;;;;;;;;;6212587;23;20368;-78
2021/10/31 02:22:37;;;;;;;22.07;16.30;;;;;;;;;;6213477;23;20432;-79
2021/10/31 02:25:03;;;;;;;20.00;16.93;;;;;;;;;;6213680;23;20761;-79
2021/10/31 02:27:31;;;;;;;21.90;19.10;;;;;;;;;;6214292;23;20484;-78
2021/10/31 02:29:57;;;;;;;20.73;18.43;;;;;;;;;;6213822;23;20151;-78
2021/10/31 02:32:25;;;;;;;23.77;19.00;;;;;;;;;;6213642;23;20367;-78
2021/10/31 02:34:50;;;;;;;21.50;17.57;;;;;;;;;;6213428;23;20359;-78
2021/10/31 02:37:15;;;;;;;29.17;20.03;;;;;;;;;;6213611;23;20381;-78
2021/10/31 02:39:41;;;;;;;23.20;19.50;;;;;;;;;;6213663;23;20285;-78
2021/10/31 02:42:07;;;;;;;23.80;20.43;;;;;;;;;;6210806;23;20186;-79
2021/10/31 02:44:33;;;;;;;27.87;19.83;;;;;;;;;;6213020;23;20391;-79
2021/10/31 02:46:58;;;;;;;23.80;19.80;;;;;;;;;;6213149;23;20168;-79
2021/10/31 02:49:24;;;;;;;28.10;22.30;;;;;;;;;;6214652;23;20397;-78
2021/10/31 02:51:49;;;;;;;23.47;21.07;;;;;;;;;;6213392;23;20231;-79
2021/10/31 02:54:29;;;;;;;26.93;20.80;;;;;;;;;;6213516;23;20174;-78
2021/10/31 02:57:14;;;;;;;24.90;20.03;;;;;;;;;;6213114;23;20274;-78
2021/10/31 02:59:48;;;;;;;25.00;21.70;;;;;;;;;;6212014;23;20570;-78
2021/10/31 03:02:14;;;;;;;26.33;21.50;;;;;;;;;;6186028;23;20457;-78
2021/10/31 03:04:39;;;;;;;25.13;21.03;;;;;;;;;;6212094;23;20764;-78
2021/10/31 03:07:05;;;;;;;31.43;22.37;;;;;;;;;;6211689;23;20785;-78
2021/10/31 03:09:30;;;;;;;26.27;21.37;;;;;;;;;;6212165;23;20484;-77
2021/10/31 03:11:59;;;;;;;24.70;21.27;;;;;;;;;;6212700;23;20159;-78
2021/10/31 03:14:25;;;;;;;24.80;20.70;;;;;;;;;;6212594;23;20148;-78
2021/10/31 03:16:50;;;;;;;25.23;21.17;;;;;;;;;;6213573;23;20445;-79
2021/10/31 03:19:15;;;;;;;28.40;21.43;;;;;;;;;;6213146;23;20148;-79
2021/10/31 03:21:40;;;;;;;25.13;21.00;;;;;;;;;;6212894;23;20171;-78
2021/10/31 03:24:06;;;;;;;29.37;21.90;;;;;;;;;;6212057;23;20140;-78
2021/10/31 03:26:31;;;;;;;25.27;21.13;;;;;;;;;;6186672;23;20172;-78
2021/10/31 03:28:56;;;;;;;22.20;19.47;;;;;;;;;;6213693;23;20179;-78
2021/10/31 03:31:21;;;;;;;25.17;19.60;;;;;;;;;;6213645;23;20140;-78
2021/10/31 03:33:47;;;;;;;28.63;21.40;;;;;;;;;;6213870;23;20175;-79
2021/10/31 03:36:12;;;;;;;25.10;21.50;;;;;;;;;;6213241;23;20164;-78
2021/10/31 03:38:37;;;;;;;35.07;24.00;;;;;;;;;;6213194;23;20239;-78
2021/10/31 03:41:02;;;;;;;26.90;23.90;;;;;;;;;;6213043;23;20159;-78
2021/10/31 03:43:28;;;;;;;28.23;23.53;;;;;;;;;;6212508;23;20143;-78
2021/10/31 03:45:53;;;;;;;34.27;25.60;;;;;;;;;;6212841;23;20182;-79
2021/10/31 03:48:18;;;;;;;39.07;26.17;;;;;;;;;;6213891;23;20183;-79
2021/10/31 03:50:43;;;;;;;27.53;24.33;;;;;;;;;;6186879;23;20144;-78
2021/10/31 03:53:09;;;;;;;31.80;27.37;;;;;;;;;;6212304;23;20179;-78
2021/10/31 03:55:34;;;;;;;32.73;26.40;;;;;;;;;;6186060;23;20172;-78
2021/10/31 03:57:59;;;;;;;30.70;24.90;;;;;;;;;;6212582;23;20234;-78
2021/10/31 04:00:25;;;;;;;35.10;27.40;;;;;;;;;;6213559;23;20187;-78
2021/10/31 04:02:51;;;;;;;33.37;27.07;;;;;;;;;;6209727;23;20436;-78
2021/10/31 04:05:16;;;;;;;36.33;28.53;;;;;;;;;;6212187;23;20172;-78
2021/10/31 04:07:47;;;;;;;36.50;27.53;;;;;;;;;;6212969;23;20442;-77
2021/10/31 04:10:12;;;;;;;37.97;28.43;;;;;;;;;;6213271;23;20135;-78
2021/10/31 04:12:37;;;;;;;35.90;28.10;;;;;;;;;;6211888;23;20363;-78
2021/10/31 04:15:03;;;;;;;35.17;28.50;;;;;;;;;;6213569;23;20160;-78
2021/10/31 04:17:29;;;;;;;33.40;27.33;;;;;;;;;;6213434;23;20140;-78
2021/10/31 04:19:54;;;;;;;38.20;27.60;;;;;;;;;;6213404;23;20378;-78
2021/10/31 04:22:19;;;;;;;32.90;28.30;;;;;;;;;;6208999;23;20490;-78
2021/10/31 04:24:44;;;;;;;36.13;27.37;;;;;;;;;;6211459;23;20202;-78
2021/10/31 04:27:10;;;;;;;32.53;28.57;;;;;;;;;;6185676;23;20203;-78
2021/10/31 04:29:35;;;;;;;32.10;28.70;;;;;;;;;;6211849;23;20150;-78
2021/10/31 04:32:00;;;;;;;37.40;29.83;;;;;;;;;;6212266;23;20144;-78
2021/10/31 04:34:26;;;;;;;35.23;28.23;;;;;;;;;;6211861;23;20172;-78
2021/10/31 04:36:51;;;;;;;36.10;28.80;;;;;;;;;;6211900;23;20618;-78
2021/10/31 04:39:17;;;;;;;31.50;27.27;;;;;;;;;;6185270;23;20145;-78
2021/10/31 04:41:45;;;;;;;35.03;28.07;;;;;;;;;;6211687;23;20164;-78
2021/10/31 04:44:10;;;;;;;33.30;26.37;;;;;;;;;;6211811;23;20144;-78
2021/10/31 04:46:35;;;;;;;31.67;28.17;;;;;;;;;;6211821;23;20437;-77
2021/10/31 04:49:01;;;;;;;29.37;26.20;;;;;;;;;;6212287;23;20195;-78
2021/10/31 04:51:26;;;;;;;32.17;26.67;;;;;;;;;;6211688;23;20140;-78
2021/10/31 04:53:51;;;;;;;31.40;26.90;;;;;;;;;;6210689;23;20140;-78
2021/10/31 04:56:17;;;;;;;32.17;25.13;;;;;;;;;;6185306;23;20172;-78
2021/10/31 04:58:42;;;;;;;28.47;24.77;;;;;;;;;;6209736;23;20148;-78
2021/10/31 05:01:07;;;;;;;29.73;26.00;;;;;;;;;;6210297;23;20230;-78
2021/10/31 05:03:32;;;;;;;30.40;26.63;;;;;;;;;;6211872;23;20222;-78
2021/10/31 05:05:59;;;;;;;32.00;26.30;;;;;;;;;;6210719;23;20195;-78
2021/10/31 05:08:25;;;;;;;38.93;28.17;;;;;;;;;;6211436;23;20195;-78
2021/10/31 05:10:50;;;;;;;29.43;24.87;;;;;;;;;;6211420;23;20770;-78
2021/10/31 05:13:16;;;;;;;34.23;26.57;;;;;;;;;;6212610;23;20180;-78
2021/10/31 05:15:41;;;;;;;34.57;25.50;;;;;;;;;;6212206;23;21000;-78
2021/10/31 05:18:07;;;;;;;34.23;27.43;;;;;;;;;;6212225;23;20528;-79
2021/10/31 05:20:32;;;;;;;34.60;26.90;;;;;;;;;;6185626;23;20156;-78
2021/10/31 05:22:57;;;;;;;34.50;26.57;;;;;;;;;;6211372;23;20183;-78
2021/10/31 05:25:22;;;;;;;33.63;27.03;;;;;;;;;;6210928;23;20168;-78
2021/10/31 05:27:48;;;;;;;32.27;27.83;;;;;;;;;;6211323;23;20199;-77
2021/10/31 05:30:13;;;;;;;34.03;28.33;;;;;;;;;;6211767;23;20140;-77
2021/10/31 05:32:39;;;;;;;29.47;25.73;;;;;;;;;;6212000;23;20522;-77
2021/10/31 05:35:06;;;;;;;33.60;25.40;;;;;;;;;;6209728;23;20245;-77
2021/10/31 05:37:35;;;;;;;32.83;25.53;;;;;;;;;;6211526;23;20425;-77
2021/10/31 05:40:01;;;;;;;40.73;27.37;;;;;;;;;;6210155;23;20783;-76
2021/10/31 05:42:26;;;;;;;31.57;24.60;;;;;;;;;;6212157;23;20398;-77
2021/10/31 05:44:52;;;;;;;30.63;25.00;;;;;;;;;;6212079;23;20390;-77
2021/10/31 05:47:17;;;;;;;30.67;24.27;;;;;;;;;;6210426;23;20218;-77
2021/10/31 05:49:42;;;;;;;32.00;25.57;;;;;;;;;;6210138;23;20202;-77
2021/10/31 05:52:07;;;;;;;31.07;23.90;;;;;;;;;;6210878;23;20490;-77
2021/10/31 05:54:33;;;;;;;27.63;24.60;;;;;;;;;;6210120;23;20140;-77
2021/10/31 05:56:59;;;;;;;29.97;23.80;;;;;;;;;;6211717;23;20164;-77
2021/10/31 05:59:24;;;;;;;29.00;23.63;;;;;;;;;;6211526;23;20374;-78
2021/10/31 06:01:49;;;;;;;34.80;23.67;;;;;;;;;;6212175;23;20178;-77
2021/10/31 06:04:14;;;;;;;27.50;24.57;;;;;;;;;;6210901;23;20491;-77
2021/10/31 06:06:40;;;;;;;29.63;25.13;;;;;;;;;;6210872;23;20156;-77
2021/10/31 06:09:05;;;;;;;29.17;24.30;;;;;;;;;;6211258;23;20200;-77
2021/10/31 06:11:30;;;;;;;37.53;25.57;;;;;;;;;;6210241;23;20144;-78
2021/10/31 06:13:56;;;;;;;28.97;24.70;;;;;;;;;;6211476;23;20168;-77
2021/10/31 06:16:21;;;;;;;27.37;23.67;;;;;;;;;;6211583;23;20164;-78
2021/10/31 06:18:46;;;;;;;32.77;25.37;;;;;;;;;;6211083;23;20195;-78
2021/10/31 06:21:12;;;;;;;30.37;24.47;;;;;;;;;;6209520;23;20167;-78
2021/10/31 06:23:37;;;;;;;33.67;24.67;;;;;;;;;;6211826;23;20230;-78
2021/10/31 06:26:03;;;;;;;31.40;24.60;;;;;;;;;;6211178;23;20164;-78
2021/10/31 06:28:28;;;;;;;36.73;25.77;;;;;;;;;;6212020;23;20172;-78
2021/10/31 06:30:53;;;;;;;34.67;25.83;;;;;;;;;;6209353;23;20417;-77
2021/10/31 06:33:19;;;;;;;39.53;24.87;;;;;;;;;;6211202;23;20148;-77
2021/10/31 06:35:45;;;;;;;28.13;23.63;;;;;;;;;;6211673;23;20187;-77
2021/10/31 06:38:10;;;;;;;30.83;25.13;;;;;;;;;;6211059;23;20182;-77
2021/10/31 06:40:35;;;;;;;35.20;23.50;;;;;;;;;;6210669;23;20767;-77
2021/10/31 06:43:01;;;;;;;30.33;24.20;;;;;;;;;;6211770;23;20160;-76
2021/10/31 06:45:26;;;;;;;28.93;22.70;;;;;;;;;;6212518;23;20637;-77
2021/10/31 06:47:51;;;;;;;28.87;22.57;;;;;;;;;;6212748;23;20168;-77
2021/10/31 06:50:17;;;;;;;29.80;24.37;;;;;;;;;;6213706;23;20199;-78
2021/10/31 06:52:43;;;;;;;26.10;23.17;;;;;;;;;;6213580;23;20224;-77
2021/10/31 06:55:10;;;;;;;33.00;20.87;;;;;;;;;;6213096;23;20909;-77
2021/10/31 06:57:36;;;;;;;28.43;23.07;;;;;;;;;;6213921;23;20171;-78
2021/10/31 07:00:02;;;;;;;25.70;20.97;;;;;;;;;;6212935;23;20371;-78
2021/10/31 07:02:27;;;;;;;22.07;19.57;;;;;;;;;;6213082;23;20378;-78
2021/10/31 07:04:53;;;;;;;27.20;21.00;;;;;;;;;;6212806;23;20367;-78
2021/10/31 07:07:19;;;;;;;24.50;19.80;;;;;;;;;;6212951;23;20256;-78
2021/10/31 07:09:45;;;;;;;23.23;20.43;;;;;;;;;;6186520;23;20906;-78
2021/10/31 07:12:10;;;;;;;21.03;18.47;;;;;;;;;;6212720;23;20391;-77
2021/10/31 07:14:36;;;;;;;20.13;17.97;;;;;;;;;;6213168;23;20414;-78
2021/10/31 07:17:01;;;;;;;22.13;19.10;;;;;;;;;;6212845;23;20144;-78
2021/10/31 07:19:26;;;;;;;21.37;19.07;;;;;;;;;;6212628;23;20172;-78
2021/10/31 07:21:51;;;;;;;28.67;20.23;;;;;;;;;;6212873;23;20140;-77
2021/10/31 07:24:17;;;;;;;24.73;19.30;;;;;;;;;;6212575;23;20178;-77
2021/10/31 07:26:42;;;;;;;23.63;20.20;;;;;;;;;;6211756;23;20168;-77
2021/10/31 07:29:08;;;;;;;22.33;19.93;;;;;;;;;;6210972;23;20742;-77
2021/10/31 07:31:36;;;;;;;28.87;19.60;;;;;;;;;;6209870;23;20151;-77
2021/10/31 07:34:01;;;;;;;21.43;18.63;;;;;;;;;;6209124;23;21207;-77
2021/10/31 07:36:27;;;;;;;24.40;19.13;;;;;;;;;;6206387;23;20387;-76
2021/10/31 07:38:52;;;;;;;24.00;17.53;;;;;;;;;;6210635;23;20194;-76
2021/10/31 07:41:17;;;;;;;24.30;18.47;;;;;;;;;;6210599;23;20230;-77
2021/10/31 07:43:43;;;;;;;21.07;18.70;;;;;;;;;;6210706;23;20223;-78
2021/10/31 07:46:08;;;;;;;24.23;19.10;;;;;;;;;;6211810;23;20257;-77
2021/10/31 07:48:33;;;;;;;22.93;17.50;;;;;;;;;;6213559;23;20171;-78
2021/10/31 07:50:59;;;;;;;25.77;18.10;;;;;;;;;;6213950;23;20602;-78
2021/10/31 07:53:24;;;;;;;21.67;17.80;;;;;;;;;;6211093;23;20144;-77
2021/10/31 07:55:52;;;;;;;18.97;16.43;;;;;;;;;;6209256;23;20630;-78
2021/10/31 07:58:20;;;;;;;25.50;16.97;;;;;;;;;;6216377;23;20218;-77
2021/10/31 08:00:46;;;;;;;24.83;17.33;;;;;;;;;;6211112;23;20771;-78
2021/10/31 08:03:11;;;;;;;19.40;16.30;;;;;;;;;;6210882;23;20371;-78
2021/10/31 08:05:38;;;;;;;20.80;17.30;;;;;;;;;;6210790;23;20199;-77
2021/10/31 08:08:03;;;;;;;19.10;15.83;;;;;;;;;;6212212;23;20171;-78
2021/10/31 08:10:28;;;;;;;17.90;15.00;;;;;;;;;;6211772;23;20374;-77
2021/10/31 08:12:53;;;;;;;21.33;15.93;;;;;;;;;;6183294;23;20594;-77
2021/10/31 08:15:19;;;;;;;20.03;15.43;;;;;;;;;;6211164;23;20247;-77
2021/10/31 08:17:44;;;;;;;17.03;15.30;;;;;;;;;;6212371;23;20876;-77
2021/10/31 08:20:10;;;;;;;18.50;15.70;;;;;;;;;;6212059;23;20148;-78
2021/10/31 08:22:36;;;;;;;19.20;15.33;;;;;;;;;;6211983;23;20172;-78
2021/10/31 08:25:03;;;;;;;18.93;14.87;;;;;;;;;;6211039;23;20434;-77
2021/10/31 08:27:29;;;;;;;15.90;14.20;;;;;;;;;;6211483;23;21175;-78
2021/10/31 08:29:54;;;;;;;27.37;14.63;;;;;;;;;;6212233;23;20374;-77
2021/10/31 08:32:22;;;;;;;17.90;13.67;;;;;;;;;;6211616;23;20152;-77
2021/10/31 08:34:47;;;;;;;17.40;14.60;;;;;;;;;;6211865;23;20140;-77
2021/10/31 08:37:12;;;;;;;16.17;13.67;;;;;;;;;;6210901;23;20370;-77
2021/10/31 08:39:38;;;;;;;20.23;14.43;;;;;;;;;;6212768;23;20163;-78
2021/10/31 08:42:03;;;;;;;15.03;13.20;;;;;;;;;;6212789;23;20160;-78
2021/10/31 08:44:28;;;;;;;18.27;13.70;;;;;;;;;;6211407;23;20480;-78
2021/10/31 08:46:54;;;;;;;15.20;12.97;;;;;;;;;;6212155;23;20159;-77
2021/10/31 08:49:19;;;;;;;20.27;13.77;;;;;;;;;;6211777;23;20183;-77
2021/10/31 08:51:45;;;;;;;16.27;13.57;;;;;;;;;;6185670;23;20152;-77
2021/10/31 08:54:11;;;;;;;16.50;13.17;;;;;;;;;;6211129;23;20368;-78
2021/10/31 08:56:36;;;;;;;18.17;15.03;;;;;;;;;;6210779;23;20251;-77
2021/10/31 08:59:01;;;;;;;17.87;13.80;;;;;;;;;;6212081;23;20195;-78
2021/10/31 09:01:27;;;;;;;20.23;14.80;;;;;;;;;;6211939;23;20148;-77
2021/10/31 09:03:53;;;;;;;19.03;13.57;;;;;;;;;;6210656;23;20163;-77
2021/10/31 09:06:19;;;;;;;17.50;14.30;;;;;;;;;;6209894;23;20172;-77
2021/10/31 09:08:44;;;;;;;16.33;13.00;;;;;;;;;;6208335;23;20448;-77
2021/10/31 09:11:10;;;;;;;17.27;13.37;;;;;;;;;;6210952;23;20805;-79
2021/10/31 09:13:35;;;;;;;15.83;14.03;;;;;;;;;;6213849;23;20484;-79
2021/10/31 09:16:00;;;;;;;15.50;13.37;;;;;;;;;;6184399;23;20218;-78
2021/10/31 09:18:26;;;;;;;18.53;15.00;;;;;;;;;;6210375;23;20152;-78
2021/10/31 09:20:51;;;;;;;16.23;14.17;;;;;;;;;;6207027;23;20206;-78
2021/10/31 09:23:17;;;;;;;15.43;13.60;;;;;;;;;;6180582;23;20152;-77
2021/10/31 09:25:42;;;;;;;20.10;14.40;;;;;;;;;;6210969;23;20195;-77
2021/10/31 09:28:08;;;;;;;21.93;14.47;;;;;;;;;;6183953;23;20187;-77
2021/10/31 09:30:35;;;;;;;16.50;13.77;;;;;;;;;;6184665;23;20147;-77
2021/10/31 09:33:02;;;;;;;18.07;14.77;;;;;;;;;;6210368;23;20156;-78
2021/10/31 09:35:29;;;;;;;17.53;14.90;;;;;;;;;;6213447;23;20433;-78
2021/10/31 09:37:58;;;;;;;22.00;16.47;;;;;;;;;;6210409;23;20390;-78
2021/10/31 09:40:23;;;;;;;20.77;15.70;;;;;;;;;;6211179;23;20366;-78
2021/10/31 09:42:51;;;;;;;20.27;16.07;;;;;;;;;;6228398;22;20445;-71
2021/10/31 09:45:16;;;;;;;21.40;17.93;;;;;;;;;;6247309;23;20166;-72
2021/10/31 09:47:43;;;;;;;23.20;17.73;;;;;;;;;;6247275;23;20880;-72
2021/10/31 09:50:09;;;;;;;19.03;17.03;;;;;;;;;;6247081;23;20143;-71
2021/10/31 09:52:34;;;;;;;20.80;18.50;;;;;;;;;;6228045;23;20384;-72
2021/10/31 09:55:00;;;;;;;26.07;21.57;;;;;;;;;;6216427;23;20370;-74
2021/10/31 09:57:25;;;;;;;24.90;20.00;;;;;;;;;;6217078;23;20171;-74
2021/10/31 09:59:53;;;;;;;23.27;20.70;;;;;;;;;;6217174;23;20148;-73
2021/10/31 10:02:37;;;;;;;22.20;19.90;;;;;;;;;;6217248;23;20164;-74
2021/10/31 10:05:02;;;;;;;27.57;20.83;;;;;;;;;;6189804;23;20397;-71
2021/10/31 10:07:28;;;;;;;22.47;20.03;;;;;;;;;;6217182;23;20901;-75
2021/10/31 10:09:54;;;;;;;21.90;19.17;;;;;;;;;;6217721;23;20147;-73
2021/10/31 10:12:20;;;;;;;22.37;18.70;;;;;;;;;;6216918;23;20175;-73
2021/10/31 10:14:55;;;;;;;22.03;17.50;;;;;;;;;;6215301;23;20450;-73
2021/10/31 10:17:20;;;;;;;19.40;17.30;;;;;;;;;;6214630;23;20600;-73
2021/10/31 10:19:47;;;;;;;16.90;15.10;;;;;;;;;;6213687;23;20398;-72
2021/10/31 10:22:14;;;;;;;16.53;14.77;;;;;;;;;;6217504;23;20198;-73
2021/10/31 10:24:48;;;;;;;18.00;14.23;;;;;;;;;;6217170;23;20371;-73
2021/10/31 10:27:13;;;;;;;16.70;13.53;;;;;;;;;;6217418;23;20397;-72
2021/10/31 10:29:39;;;;;;;15.07;12.50;;;;;;;;;;6218308;23;20370;-72
2021/10/31 10:32:11;;;;;;;14.57;13.00;;;;;;;;;;6216850;23;20243;-72
2021/10/31 10:34:47;;;;;;;18.37;12.47;;;;;;;;;;6216178;23;20371;-72
2021/10/31 10:37:14;;;;;;;16.40;12.30;;;;;;;;;;6214114;23;20350;-73
2021/10/31 10:39:40;;;;;;;16.13;12.70;;;;;;;;;;6215006;23;20609;-73
2021/10/31 10:42:06;;;;;;;12.00;10.90;;;;;;;;;;6215732;23;20433;-75
2021/10/31 10:44:36;;;;;;;19.13;12.43;;;;;;;;;;6216270;23;20359;-74
2021/10/31 10:47:08;;;;;;;12.93;11.60;;;;;;;;;;6214923;23;20436;-73
2021/10/31 10:49:41;;;;;;;18.43;14.13;;;;;;;;;;6213975;23;20768;-77
2021/10/31 10:52:19;;;;;;;15.27;13.27;;;;;;;;;;6215678;23;20390;-72
2021/10/31 10:54:49;;;;;;;18.37;13.83;;;;;;;;;;6215207;23;20344;-72
2021/10/31 10:57:15;;;;;;;14.53;13.10;;;;;;;;;;6214610;23;20868;-73
2021/10/31 10:59:40;;;;;;;18.00;14.80;;;;;;;;;;6215412;23;20371;-75
2021/10/31 11:02:10;;;;;;;18.07;14.73;;;;;;;;;;6215880;23;20160;-72
2021/10/31 11:04:36;;;;;;;19.63;15.70;;;;;;;;;;6216395;23;20147;-72
2021/10/31 11:07:04;;;;;;;18.57;15.00;;;;;;;;;;6215474;23;20455;-76
2021/10/31 11:09:42;;;;;;;18.60;15.53;;;;;;;;;;6215894;23;20148;-73
2021/10/31 11:12:28;;;;;;;20.10;15.60;;;;;;;;;;6213901;23;20387;-71
2021/10/31 11:14:54;;;;;;;18.03;14.57;;;;;;;;;;6214867;23;21278;-72
2021/10/31 11:17:21;;;;;;;21.73;15.17;;;;;;;;;;6213273;23;20367;-73
2021/10/31 11:19:46;;;;;;;16.80;15.07;;;;;;;;;;6216847;23;20385;-71
2021/10/31 11:22:12;;;;;;;18.07;15.10;;;;;;;;;;6216610;23;20941;-71
2021/10/31 11:24:38;;;;;;;17.30;15.10;;;;;;;;;;6216783;23;20150;-71
2021/10/31 11:27:05;;;;;;;17.40;14.93;;;;;;;;;;6216459;23;20144;-75
2021/10/31 11:29:31;;;;;;;17.90;13.53;;;;;;;;;;6216260;23;21074;-72
2021/10/31 11:31:59;;;;;;;18.13;14.70;;;;;;;;;;6216807;23;20632;-71
2021/10/31 11:34:24;;;;;;;20.37;15.07;;;;;;;;;;6216312;23;20394;-71
2021/10/31 11:36:50;;;;;;;14.43;12.87;;;;;;;;;;6216677;23;20505;-71
2021/10/31 11:39:15;;;;;;;18.00;14.30;;;;;;;;;;6216361;23;20242;-71
2021/10/31 11:41:40;;;;;;;19.00;13.73;;;;;;;;;;6215463;23;20246;-71
2021/10/31 11:44:06;;;;;;;14.20;12.70;;;;;;;;;;6216637;23;20139;-70
2021/10/31 11:46:40;;;;;;;14.60;12.50;;;;;;;;;;6215810;23;20653;-75
2021/10/31 11:49:05;;;;;;;14.30;11.70;;;;;;;;;;6215796;23;20626;-72
2021/10/31 11:51:41;;;;;;;18.90;12.33;;;;;;;;;;6189604;23;20402;-73
2021/10/31 11:54:06;;;;;;;14.60;11.93;;;;;;;;;;6215746;23;20477;-72
2021/10/31 11:56:37;;;;;;;19.17;13.07;;;;;;;;;;6215660;23;20363;-72
2021/10/31 11:59:14;;;;;;;15.13;11.50;;;;;;;;;;6215720;23;20673;-72
2021/10/31 12:01:43;;;;;;;15.10;12.70;;;;;;;;;;6210714;23;20387;-71
2021/10/31 12:04:12;;;;;;;12.80;11.30;;;;;;;;;;6215124;23;20853;-74
2021/10/31 12:06:38;;;;;;;17.60;12.03;;;;;;;;;;6211463;23;21042;-73
2021/10/31 12:09:17;;;;;;;14.60;11.87;;;;;;;;;;6213383;23;20506;-77
2021/10/31 12:11:42;;;;;;;14.50;11.90;;;;;;;;;;6212760;23;21003;-73
2021/10/31 12:14:08;;;;;;;12.23;10.67;;;;;;;;;;6213682;23;20356;-74
2021/10/31 12:17:06;;;;;;;11.70;10.10;;;;;;;;;;6214535;23;20144;-73
2021/10/31 12:19:41;;;;;;;11.33;9.30;;;;;;;;;;6164706;23;20451;-73
2021/10/31 12:22:07;;;;;;;10.10;9.10;;;;;;;;;;6209487;23;20394;-74
2021/10/31 12:24:39;;;;;;;10.37;9.07;;;;;;;;;;6213897;23;20717;-72
2021/10/31 12:27:09;;;;;;;10.50;8.70;;;;;;;;;;6213906;23;20151;-72
2021/10/31 12:29:36;;;;;;;9.30;8.33;;;;;;;;;;6214276;23;20367;-72
2021/10/31 12:32:01;;;;;;;8.43;7.60;;;;;;;;;;6211055;23;20462;-72
2021/10/31 12:34:39;;;;;;;9.13;8.00;;;;;;;;;;6210545;23;20363;-72
2021/10/31 12:37:20;;;;;;;8.50;7.57;;;;;;;;;;6210184;23;20282;-72
2021/10/31 12:39:46;;;;;;;9.13;7.53;;;;;;;;;;6208699;23;20370;-74
2021/10/31 12:42:11;;;;;;;9.37;7.97;;;;;;;;;;6209389;23;20877;-74
2021/10/31 12:44:37;;;;;;;8.93;7.93;;;;;;;;;;6214674;23;20360;-73
2021/10/31 12:47:07;;;;;;;8.23;7.43;;;;;;;;;;6213275;23;20152;-71
2021/10/31 12:49:32;;;;;;;8.97;7.53;;;;;;;;;;6210249;23;20375;-73
2021/10/31 12:54:26;;;;;;;9.10;7.83;;;;;;;;;;6210331;23;20171;-78
2021/10/31 12:56:54;;;;;;;10.77;7.87;;;;;;;;;;6209092;23;20765;-74
2021/10/31 12:59:20;;;;;;;8.07;6.60;;;;;;;;;;6207463;23;20232;-74
2021/10/31 13:01:46;;;;;;;7.83;7.03;;;;;;;;;;6207975;23;20429;-73
2021/10/31 13:04:11;;;;;;;7.23;6.50;;;;;;;;;;6208340;23;20174;-73
2021/10/31 13:06:55;;;;;;;8.03;5.83;;;;;;;;;;6205936;23;20963;-73
2021/10/31 13:09:21;;;;;;;5.60;5.00;;;;;;;;;;6210520;23;20175;-73
2021/10/31 13:11:47;;;;;;;7.70;6.20;;;;;;;;;;6208272;23;20385;-72
2021/10/31 13:14:41;;;;;;;8.73;5.93;;;;;;;;;;6207945;23;20395;-72
2021/10/31 13:17:07;;;;;;;5.20;4.73;;;;;;;;;;6195369;23;20148;-73
2021/10/31 13:19:33;;;;;;;5.40;4.90;;;;;;;;;;6209720;23;20466;-72
2021/10/31 13:22:01;;;;;;;6.43;5.13;;;;;;;;;;6206830;23;20262;-73
2021/10/31 13:24:27;;;;;;;5.70;5.10;;;;;;;;;;6208337;23;20417;-74
2021/10/31 13:26:52;;;;;;;8.07;5.27;;;;;;;;;;6210155;23;20480;-74
2021/10/31 13:29:17;;;;;;;10.03;5.50;;;;;;;;;;6210389;23;20172;-75
2021/10/31 13:31:43;;;;;;;5.33;4.83;;;;;;;;;;6213372;23;20485;-74
2021/10/31 13:34:10;;;;;;;5.97;5.37;;;;;;;;;;6213374;23;20650;-74
2021/10/31 13:36:36;;;;;;;5.80;4.80;;;;;;;;;;6211595;23;20144;-74
2021/10/31 13:39:06;;;;;;;5.77;5.20;;;;;;;;;;6211303;23;20363;-76
2021/10/31 13:41:37;;;;;;;6.17;5.57;;;;;;;;;;6214796;23;20414;-75
2021/10/31 13:44:15;;;;;;;7.77;5.07;;;;;;;;;;6214153;23;20359;-74
2021/10/31 13:46:42;;;;;;;9.23;4.90;;;;;;;;;;6213048;23;20393;-73
2021/10/31 13:49:09;;;;;;;8.50;5.20;;;;;;;;;;6210146;23;20889;-72
2021/10/31 13:51:38;;;;;;;5.60;4.97;;;;;;;;;;6212601;23;20445;-72
2021/10/31 13:54:04;;;;;;;4.90;4.40;;;;;;;;;;6210120;23;20829;-75
2021/10/31 13:56:34;;;;;;;5.50;4.73;;;;;;;;;;6216372;23;20373;-75
2021/10/31 13:58:59;;;;;;;5.00;4.20;;;;;;;;;;6216765;23;20144;-75
2021/10/31 14:01:31;;;;;;;4.90;4.43;;;;;;;;;;6215736;23;20923;-74
2021/10/31 14:04:06;;;;;;;4.70;4.20;;;;;;;;;;6185284;23;20160;-77
2021/10/31 14:06:31;;;;;;;5.10;3.83;;;;;;;;;;6213082;23;20362;-73
2021/10/31 14:08:59;;;;;;;3.70;3.40;;;;;;;;;;6212160;23;20506;-74
2021/10/31 14:11:25;;;;;;;3.70;3.40;;;;;;;;;;6186930;23;20175;-73
2021/10/31 14:13:50;;;;;;;4.03;3.63;;;;;;;;;;6212456;23;20359;-75
2021/10/31 14:16:18;;;;;;;6.30;3.90;;;;;;;;;;6212602;23;20459;-72
2021/10/31 14:18:43;;;;;;;3.60;3.33;;;;;;;;;;6186324;23;20192;-72
2021/10/31 14:21:12;;;;;;;3.67;3.37;;;;;;;;;;6209599;23;20398;-73
2021/10/31 14:23:38;;;;;;;3.83;3.30;;;;;;;;;;6210777;23;20148;-73